sensor_id;sensor_type;location;lat;lon;timestamp;P1;durP1;ratioP1;P2;durP2;ratioP2
79670;SDS011;69137;50.878;8.050;2023-04-21T00:00:52;20.58;;;11.63;;
79670;SDS011;69137;50.878;8.050;2023-04-21T00:03:18;19.00;;;11.30;;
79670;SDS011;69137;50.878;8.050;2023-04-21T00:05:45;19.52;;;11.75;;
79670;SDS011;69137;50.878;8.050;2023-04-21T00:08:12;21.52;;;13.32;;
79670;SDS011;69137;50.878;8.050;2023-04-21T00:10:38;20.25;;;11.45;;
79670;SDS011;69137;50.878;8.050;2023-04-21T00:13:03;18.80;;;12.35;;
79670;SDS011;69137;50.878;8.050;2023-04-21T00:15:29;17.83;;;11.98;;
79670;SDS011;69137;50.878;8.050;2023-04-21T00:17:54;17.15;;;10.90;;
79670;SDS011;69137;50.878;8.050;2023-04-21T00:20:20;20.45;;;11.75;;
79670;SDS011;69137;50.878;8.050;2023-04-21T00:22:45;18.00;;;11.07;;
79670;SDS011;69137;50.878;8.050;2023-04-21T00:25:11;17.60;;;11.02;;
79670;SDS011;69137;50.878;8.050;2023-04-21T00:27:36;18.20;;;10.75;;
79670;SDS011;69137;50.878;8.050;2023-04-21T00:30:02;15.80;;;10.15;;
79670;SDS011;69137;50.878;8.050;2023-04-21T00:32:28;12.93;;;8.45;;
79670;SDS011;69137;50.878;8.050;2023-04-21T00:34:53;14.20;;;9.40;;
79670;SDS011;69137;50.878;8.050;2023-04-21T00:37:19;14.75;;;9.30;;
79670;SDS011;69137;50.878;8.050;2023-04-21T00:39:44;15.13;;;10.43;;
79670;SDS011;69137;50.878;8.050;2023-04-21T00:42:10;15.27;;;9.93;;
79670;SDS011;69137;50.878;8.050;2023-04-21T00:44:35;12.73;;;8.05;;
79670;SDS011;69137;50.878;8.050;2023-04-21T00:47:00;14.85;;;9.18;;
79670;SDS011;69137;50.878;8.050;2023-04-21T00:49:26;16.58;;;9.75;;
79670;SDS011;69137;50.878;8.050;2023-04-21T00:51:52;14.82;;;9.48;;
79670;SDS011;69137;50.878;8.050;2023-04-21T00:54:18;14.10;;;9.40;;
79670;SDS011;69137;50.878;8.050;2023-04-21T00:56:44;14.80;;;9.32;;
79670;SDS011;69137;50.878;8.050;2023-04-21T00:59:09;15.52;;;10.52;;
79670;SDS011;69137;50.878;8.050;2023-04-21T01:01:35;17.23;;;10.10;;
79670;SDS011;69137;50.878;8.050;2023-04-21T01:04:01;14.88;;;10.05;;
79670;SDS011;69137;50.878;8.050;2023-04-21T01:06:29;15.75;;;9.80;;
79670;SDS011;69137;50.878;8.050;2023-04-21T01:08:56;16.30;;;10.35;;
79670;SDS011;69137;50.878;8.050;2023-04-21T01:11:21;15.77;;;9.63;;
79670;SDS011;69137;50.878;8.050;2023-04-21T01:13:47;16.60;;;10.55;;
79670;SDS011;69137;50.878;8.050;2023-04-21T01:16:16;15.77;;;10.30;;
79670;SDS011;69137;50.878;8.050;2023-04-21T01:18:43;17.42;;;10.82;;
79670;SDS011;69137;50.878;8.050;2023-04-21T01:21:09;17.75;;;10.75;;
79670;SDS011;69137;50.878;8.050;2023-04-21T01:23:35;19.00;;;11.70;;
79670;SDS011;69137;50.878;8.050;2023-04-21T01:26:01;22.08;;;12.07;;
79670;SDS011;69137;50.878;8.050;2023-04-21T01:28:26;19.88;;;12.27;;
79670;SDS011;69137;50.878;8.050;2023-04-21T01:30:52;20.92;;;13.18;;
79670;SDS011;69137;50.878;8.050;2023-04-21T01:33:18;19.45;;;11.90;;
79670;SDS011;69137;50.878;8.050;2023-04-21T01:35:44;17.10;;;11.60;;
79670;SDS011;69137;50.878;8.050;2023-04-21T01:38:10;22.08;;;12.82;;
79670;SDS011;69137;50.878;8.050;2023-04-21T01:40:36;18.25;;;11.82;;
79670;SDS011;69137;50.878;8.050;2023-04-21T01:43:02;18.73;;;11.48;;
79670;SDS011;69137;50.878;8.050;2023-04-21T01:45:28;21.10;;;12.45;;
79670;SDS011;69137;50.878;8.050;2023-04-21T01:47:54;19.05;;;12.13;;
79670;SDS011;69137;50.878;8.050;2023-04-21T01:50:20;19.63;;;12.50;;
79670;SDS011;69137;50.878;8.050;2023-04-21T01:52:45;23.73;;;14.48;;
79670;SDS011;69137;50.878;8.050;2023-04-21T01:55:10;20.83;;;13.02;;
79670;SDS011;69137;50.878;8.050;2023-04-21T01:57:36;23.45;;;14.38;;
79670;SDS011;69137;50.878;8.050;2023-04-21T02:00:02;23.48;;;13.10;;
79670;SDS011;69137;50.878;8.050;2023-04-21T02:02:28;21.17;;;12.52;;
79670;SDS011;69137;50.878;8.050;2023-04-21T02:04:54;27.08;;;14.65;;
79670;SDS011;69137;50.878;8.050;2023-04-21T02:07:19;22.63;;;14.23;;
79670;SDS011;69137;50.878;8.050;2023-04-21T02:09:45;25.30;;;13.93;;
79670;SDS011;69137;50.878;8.050;2023-04-21T02:12:10;26.25;;;14.15;;
79670;SDS011;69137;50.878;8.050;2023-04-21T02:14:36;23.08;;;13.55;;
79670;SDS011;69137;50.878;8.050;2023-04-21T02:17:02;22.75;;;13.50;;
79670;SDS011;69137;50.878;8.050;2023-04-21T02:19:28;24.40;;;13.93;;
79670;SDS011;69137;50.878;8.050;2023-04-21T02:21:54;19.48;;;12.93;;
79670;SDS011;69137;50.878;8.050;2023-04-21T02:24:19;21.67;;;13.80;;
79670;SDS011;69137;50.878;8.050;2023-04-21T02:26:45;22.73;;;13.80;;
79670;SDS011;69137;50.878;8.050;2023-04-21T02:29:10;25.02;;;13.63;;
79670;SDS011;69137;50.878;8.050;2023-04-21T02:31:36;19.08;;;11.60;;
79670;SDS011;69137;50.878;8.050;2023-04-21T02:34:01;20.92;;;12.68;;
79670;SDS011;69137;50.878;8.050;2023-04-21T02:36:27;24.85;;;13.82;;
79670;SDS011;69137;50.878;8.050;2023-04-21T02:38:52;22.92;;;14.10;;
79670;SDS011;69137;50.878;8.050;2023-04-21T02:41:17;21.50;;;13.35;;
79670;SDS011;69137;50.878;8.050;2023-04-21T02:43:43;22.02;;;13.70;;
79670;SDS011;69137;50.878;8.050;2023-04-21T02:46:08;23.27;;;13.27;;
79670;SDS011;69137;50.878;8.050;2023-04-21T02:48:34;22.00;;;13.80;;
79670;SDS011;69137;50.878;8.050;2023-04-21T02:51:00;26.02;;;13.65;;
79670;SDS011;69137;50.878;8.050;2023-04-21T02:53:25;23.25;;;13.98;;
79670;SDS011;69137;50.878;8.050;2023-04-21T02:55:51;22.40;;;13.70;;
79670;SDS011;69137;50.878;8.050;2023-04-21T02:58:16;26.25;;;15.52;;
79670;SDS011;69137;50.878;8.050;2023-04-21T03:00:42;23.05;;;13.88;;
79670;SDS011;69137;50.878;8.050;2023-04-21T03:03:07;27.25;;;15.43;;
79670;SDS011;69137;50.878;8.050;2023-04-21T03:05:33;25.60;;;14.52;;
79670;SDS011;69137;50.878;8.050;2023-04-21T03:07:58;25.38;;;14.45;;
79670;SDS011;69137;50.878;8.050;2023-04-21T03:10:24;21.27;;;14.30;;
79670;SDS011;69137;50.878;8.050;2023-04-21T03:12:49;23.00;;;13.90;;
79670;SDS011;69137;50.878;8.050;2023-04-21T03:15:15;25.98;;;14.77;;
79670;SDS011;69137;50.878;8.050;2023-04-21T03:17:41;24.50;;;13.82;;
79670;SDS011;69137;50.878;8.050;2023-04-21T03:20:07;25.30;;;14.20;;
79670;SDS011;69137;50.878;8.050;2023-04-21T03:22:36;26.48;;;14.38;;
79670;SDS011;69137;50.878;8.050;2023-04-21T03:25:05;24.55;;;14.35;;
79670;SDS011;69137;50.878;8.050;2023-04-21T03:27:31;23.10;;;14.43;;
79670;SDS011;69137;50.878;8.050;2023-04-21T03:29:57;28.88;;;16.25;;
79670;SDS011;69137;50.878;8.050;2023-04-21T03:32:23;23.83;;;14.13;;
79670;SDS011;69137;50.878;8.050;2023-04-21T03:34:49;25.35;;;13.82;;
79670;SDS011;69137;50.878;8.050;2023-04-21T03:37:14;28.98;;;15.52;;
79670;SDS011;69137;50.878;8.050;2023-04-21T03:39:40;27.33;;;15.15;;
79670;SDS011;69137;50.878;8.050;2023-04-21T03:42:05;27.60;;;16.30;;
79670;SDS011;69137;50.878;8.050;2023-04-21T03:44:31;24.13;;;15.50;;
79670;SDS011;69137;50.878;8.050;2023-04-21T03:46:56;23.00;;;13.90;;
79670;SDS011;69137;50.878;8.050;2023-04-21T03:49:21;26.08;;;15.45;;
79670;SDS011;69137;50.878;8.050;2023-04-21T03:51:47;24.33;;;15.68;;
79670;SDS011;69137;50.878;8.050;2023-04-21T03:54:12;25.10;;;16.00;;
79670;SDS011;69137;50.878;8.050;2023-04-21T03:56:38;24.98;;;15.23;;
79670;SDS011;69137;50.878;8.050;2023-04-21T03:59:03;25.60;;;13.85;;
79670;SDS011;69137;50.878;8.050;2023-04-21T04:01:29;25.73;;;15.30;;
79670;SDS011;69137;50.878;8.050;2023-04-21T04:03:55;21.90;;;13.40;;
79670;SDS011;69137;50.878;8.050;2023-04-21T04:06:20;23.60;;;14.75;;
79670;SDS011;69137;50.878;8.050;2023-04-21T04:08:45;25.20;;;14.98;;
79670;SDS011;69137;50.878;8.050;2023-04-21T04:11:11;24.88;;;14.98;;
79670;SDS011;69137;50.878;8.050;2023-04-21T04:13:36;27.50;;;16.30;;
79670;SDS011;69137;50.878;8.050;2023-04-21T04:16:02;28.60;;;15.38;;
79670;SDS011;69137;50.878;8.050;2023-04-21T04:18:27;28.83;;;16.85;;
79670;SDS011;69137;50.878;8.050;2023-04-21T04:20:52;29.42;;;17.67;;
79670;SDS011;69137;50.878;8.050;2023-04-21T04:23:18;28.20;;;17.35;;
79670;SDS011;69137;50.878;8.050;2023-04-21T04:25:43;27.88;;;16.85;;
79670;SDS011;69137;50.878;8.050;2023-04-21T04:28:09;29.13;;;16.50;;
79670;SDS011;69137;50.878;8.050;2023-04-21T04:30:36;26.25;;;17.02;;
79670;SDS011;69137;50.878;8.050;2023-04-21T04:33:01;28.25;;;16.50;;
79670;SDS011;69137;50.878;8.050;2023-04-21T04:35:27;27.15;;;16.60;;
79670;SDS011;69137;50.878;8.050;2023-04-21T04:37:52;28.77;;;17.23;;
79670;SDS011;69137;50.878;8.050;2023-04-21T04:40:20;31.38;;;18.00;;
79670;SDS011;69137;50.878;8.050;2023-04-21T04:42:46;29.48;;;17.27;;
79670;SDS011;69137;50.878;8.050;2023-04-21T04:45:13;30.08;;;17.70;;
79670;SDS011;69137;50.878;8.050;2023-04-21T04:47:40;30.52;;;16.60;;
79670;SDS011;69137;50.878;8.050;2023-04-21T04:50:06;32.75;;;19.13;;
79670;SDS011;69137;50.878;8.050;2023-04-21T04:52:32;33.80;;;18.33;;
79670;SDS011;69137;50.878;8.050;2023-04-21T04:54:57;29.38;;;16.42;;
79670;SDS011;69137;50.878;8.050;2023-04-21T04:57:23;31.33;;;18.67;;
79670;SDS011;69137;50.878;8.050;2023-04-21T04:59:52;29.92;;;17.27;;
79670;SDS011;69137;50.878;8.050;2023-04-21T05:02:21;29.92;;;17.90;;
79670;SDS011;69137;50.878;8.050;2023-04-21T05:04:49;31.23;;;16.77;;
79670;SDS011;69137;50.878;8.050;2023-04-21T05:07:15;32.13;;;18.15;;
79670;SDS011;69137;50.878;8.050;2023-04-21T05:09:40;29.60;;;16.48;;
79670;SDS011;69137;50.878;8.050;2023-04-21T05:12:05;29.80;;;18.20;;
79670;SDS011;69137;50.878;8.050;2023-04-21T05:14:31;26.75;;;16.70;;
79670;SDS011;69137;50.878;8.050;2023-04-21T05:16:56;31.13;;;18.88;;
79670;SDS011;69137;50.878;8.050;2023-04-21T05:19:22;30.90;;;17.92;;
79670;SDS011;69137;50.878;8.050;2023-04-21T05:21:47;28.40;;;17.52;;
79670;SDS011;69137;50.878;8.050;2023-04-21T05:24:12;29.50;;;16.45;;
79670;SDS011;69137;50.878;8.050;2023-04-21T05:26:38;25.75;;;16.52;;
79670;SDS011;69137;50.878;8.050;2023-04-21T05:29:03;28.30;;;17.45;;
79670;SDS011;69137;50.878;8.050;2023-04-21T05:31:29;30.00;;;18.27;;
79670;SDS011;69137;50.878;8.050;2023-04-21T05:33:54;26.55;;;16.75;;
79670;SDS011;69137;50.878;8.050;2023-04-21T05:36:20;32.35;;;19.08;;
79670;SDS011;69137;50.878;8.050;2023-04-21T05:38:45;31.20;;;18.73;;
79670;SDS011;69137;50.878;8.050;2023-04-21T05:41:11;25.40;;;16.92;;
79670;SDS011;69137;50.878;8.050;2023-04-21T05:43:36;29.05;;;18.17;;
79670;SDS011;69137;50.878;8.050;2023-04-21T05:46:02;29.70;;;18.50;;
79670;SDS011;69137;50.878;8.050;2023-04-21T05:48:32;32.58;;;18.02;;
79670;SDS011;69137;50.878;8.050;2023-04-21T05:51:06;29.05;;;17.30;;
79670;SDS011;69137;50.878;8.050;2023-04-21T05:53:38;28.25;;;17.30;;
79670;SDS011;69137;50.878;8.050;2023-04-21T05:56:04;27.00;;;16.90;;
79670;SDS011;69137;50.878;8.050;2023-04-21T05:58:30;31.08;;;18.45;;
79670;SDS011;69137;50.878;8.050;2023-04-21T06:00:57;29.45;;;17.23;;
79670;SDS011;69137;50.878;8.050;2023-04-21T06:03:22;27.02;;;17.10;;
79670;SDS011;69137;50.878;8.050;2023-04-21T06:05:52;26.30;;;15.98;;
79670;SDS011;69137;50.878;8.050;2023-04-21T06:08:18;29.35;;;17.67;;
79670;SDS011;69137;50.878;8.050;2023-04-21T06:10:44;28.70;;;17.33;;
79670;SDS011;69137;50.878;8.050;2023-04-21T06:13:09;27.23;;;16.65;;
79670;SDS011;69137;50.878;8.050;2023-04-21T06:15:35;29.08;;;17.83;;
79670;SDS011;69137;50.878;8.050;2023-04-21T06:18:00;29.80;;;16.25;;
79670;SDS011;69137;50.878;8.050;2023-04-21T06:20:25;26.55;;;16.15;;
79670;SDS011;69137;50.878;8.050;2023-04-21T06:22:52;24.58;;;16.50;;
79670;SDS011;69137;50.878;8.050;2023-04-21T06:25:18;26.30;;;16.77;;
79670;SDS011;69137;50.878;8.050;2023-04-21T06:27:43;29.83;;;16.98;;
79670;SDS011;69137;50.878;8.050;2023-04-21T06:30:09;27.33;;;15.18;;
79670;SDS011;69137;50.878;8.050;2023-04-21T06:32:35;25.25;;;16.05;;
79670;SDS011;69137;50.878;8.050;2023-04-21T06:35:01;23.25;;;14.73;;
79670;SDS011;69137;50.878;8.050;2023-04-21T06:37:26;21.90;;;14.20;;
79670;SDS011;69137;50.878;8.050;2023-04-21T06:39:51;22.10;;;14.15;;
79670;SDS011;69137;50.878;8.050;2023-04-21T06:42:17;22.15;;;13.85;;
79670;SDS011;69137;50.878;8.050;2023-04-21T06:44:42;20.13;;;13.73;;
79670;SDS011;69137;50.878;8.050;2023-04-21T06:47:08;21.23;;;14.00;;
79670;SDS011;69137;50.878;8.050;2023-04-21T06:49:33;24.73;;;14.95;;
79670;SDS011;69137;50.878;8.050;2023-04-21T06:51:59;22.75;;;14.75;;
79670;SDS011;69137;50.878;8.050;2023-04-21T06:54:24;25.40;;;15.52;;
79670;SDS011;69137;50.878;8.050;2023-04-21T06:56:49;22.05;;;14.52;;
79670;SDS011;69137;50.878;8.050;2023-04-21T06:59:15;23.40;;;14.68;;
79670;SDS011;69137;50.878;8.050;2023-04-21T07:01:40;27.35;;;16.02;;
79670;SDS011;69137;50.878;8.050;2023-04-21T07:04:06;28.20;;;17.23;;
79670;SDS011;69137;50.878;8.050;2023-04-21T07:06:31;29.38;;;18.98;;
79670;SDS011;69137;50.878;8.050;2023-04-21T07:08:57;26.35;;;16.80;;
79670;SDS011;69137;50.878;8.050;2023-04-21T07:11:22;28.38;;;17.55;;
79670;SDS011;69137;50.878;8.050;2023-04-21T07:13:48;28.48;;;17.38;;
79670;SDS011;69137;50.878;8.050;2023-04-21T07:16:13;30.45;;;18.42;;
79670;SDS011;69137;50.878;8.050;2023-04-21T07:18:39;27.73;;;16.95;;
79670;SDS011;69137;50.878;8.050;2023-04-21T07:21:04;29.98;;;18.85;;
79670;SDS011;69137;50.878;8.050;2023-04-21T07:23:30;27.88;;;17.75;;
79670;SDS011;69137;50.878;8.050;2023-04-21T07:25:55;29.95;;;17.83;;
79670;SDS011;69137;50.878;8.050;2023-04-21T07:28:21;32.40;;;18.63;;
79670;SDS011;69137;50.878;8.050;2023-04-21T07:30:46;27.27;;;17.48;;
79670;SDS011;69137;50.878;8.050;2023-04-21T07:33:12;33.17;;;18.10;;
79670;SDS011;69137;50.878;8.050;2023-04-21T07:35:37;30.35;;;18.67;;
79670;SDS011;69137;50.878;8.050;2023-04-21T07:38:03;32.05;;;19.20;;
79670;SDS011;69137;50.878;8.050;2023-04-21T07:40:28;35.05;;;18.55;;
79670;SDS011;69137;50.878;8.050;2023-04-21T07:42:55;29.23;;;17.33;;
79670;SDS011;69137;50.878;8.050;2023-04-21T07:45:20;31.45;;;19.02;;
79670;SDS011;69137;50.878;8.050;2023-04-21T07:47:45;28.65;;;18.58;;
79670;SDS011;69137;50.878;8.050;2023-04-21T07:50:11;30.48;;;18.15;;
79670;SDS011;69137;50.878;8.050;2023-04-21T07:52:36;27.92;;;15.82;;
79670;SDS011;69137;50.878;8.050;2023-04-21T07:55:02;25.95;;;16.85;;
79670;SDS011;69137;50.878;8.050;2023-04-21T07:57:27;25.00;;;14.15;;
79670;SDS011;69137;50.878;8.050;2023-04-21T07:59:53;28.73;;;15.85;;
79670;SDS011;69137;50.878;8.050;2023-04-21T08:02:18;30.60;;;16.65;;
79670;SDS011;69137;50.878;8.050;2023-04-21T08:04:44;27.38;;;17.20;;
79670;SDS011;69137;50.878;8.050;2023-04-21T08:07:09;31.35;;;18.73;;
79670;SDS011;69137;50.878;8.050;2023-04-21T08:09:37;27.08;;;16.50;;
79670;SDS011;69137;50.878;8.050;2023-04-21T08:12:02;30.50;;;16.58;;
79670;SDS011;69137;50.878;8.050;2023-04-21T08:14:28;23.13;;;14.50;;
79670;SDS011;69137;50.878;8.050;2023-04-21T08:16:53;30.90;;;17.10;;
79670;SDS011;69137;50.878;8.050;2023-04-21T08:19:19;27.55;;;17.38;;
79670;SDS011;69137;50.878;8.050;2023-04-21T08:21:44;30.85;;;16.20;;
79670;SDS011;69137;50.878;8.050;2023-04-21T08:24:10;26.52;;;16.30;;
79670;SDS011;69137;50.878;8.050;2023-04-21T08:26:36;25.27;;;15.52;;
79670;SDS011;69137;50.878;8.050;2023-04-21T08:29:01;29.10;;;17.60;;
79670;SDS011;69137;50.878;8.050;2023-04-21T08:31:27;27.40;;;16.08;;
79670;SDS011;69137;50.878;8.050;2023-04-21T08:33:53;28.33;;;16.83;;
79670;SDS011;69137;50.878;8.050;2023-04-21T08:36:18;29.15;;;17.77;;
79670;SDS011;69137;50.878;8.050;2023-04-21T08:38:44;30.08;;;17.27;;
79670;SDS011;69137;50.878;8.050;2023-04-21T08:41:10;29.13;;;16.23;;
79670;SDS011;69137;50.878;8.050;2023-04-21T08:43:36;25.10;;;15.73;;
79670;SDS011;69137;50.878;8.050;2023-04-21T08:46:05;26.67;;;16.48;;
79670;SDS011;69137;50.878;8.050;2023-04-21T08:48:35;26.98;;;17.00;;
79670;SDS011;69137;50.878;8.050;2023-04-21T08:51:02;28.25;;;16.40;;
79670;SDS011;69137;50.878;8.050;2023-04-21T08:53:28;31.67;;;18.13;;
79670;SDS011;69137;50.878;8.050;2023-04-21T08:55:54;28.45;;;16.50;;
79670;SDS011;69137;50.878;8.050;2023-04-21T08:58:20;28.50;;;17.75;;
79670;SDS011;69137;50.878;8.050;2023-04-21T09:00:47;24.58;;;15.70;;
79670;SDS011;69137;50.878;8.050;2023-04-21T09:03:13;28.77;;;17.33;;
79670;SDS011;69137;50.878;8.050;2023-04-21T09:05:55;26.90;;;16.27;;
79670;SDS011;69137;50.878;8.050;2023-04-21T09:08:25;26.70;;;15.60;;
79670;SDS011;69137;50.878;8.050;2023-04-21T09:10:52;22.83;;;15.43;;
79670;SDS011;69137;50.878;8.050;2023-04-21T09:13:18;24.02;;;14.77;;
79670;SDS011;69137;50.878;8.050;2023-04-21T09:15:45;25.80;;;15.63;;
79670;SDS011;69137;50.878;8.050;2023-04-21T09:20:49;22.98;;;14.05;;
79670;SDS011;69137;50.878;8.050;2023-04-21T09:23:16;23.45;;;14.98;;
79670;SDS011;69137;50.878;8.050;2023-04-21T09:25:43;23.35;;;14.27;;
79670;SDS011;69137;50.878;8.050;2023-04-21T09:28:10;26.10;;;13.25;;
79670;SDS011;69137;50.878;8.050;2023-04-21T09:30:39;26.13;;;13.82;;
79670;SDS011;69137;50.878;8.050;2023-04-21T09:33:06;21.48;;;13.70;;
79670;SDS011;69137;50.878;8.050;2023-04-21T09:35:35;18.67;;;13.02;;
79670;SDS011;69137;50.878;8.050;2023-04-21T09:38:03;23.77;;;14.23;;
79670;SDS011;69137;50.878;8.050;2023-04-21T09:40:35;19.83;;;12.25;;
79670;SDS011;69137;50.878;8.050;2023-04-21T09:43:01;25.33;;;14.45;;
79670;SDS011;69137;50.878;8.050;2023-04-21T09:45:26;23.23;;;14.25;;
79670;SDS011;69137;50.878;8.050;2023-04-21T09:47:57;22.88;;;13.40;;
79670;SDS011;69137;50.878;8.050;2023-04-21T09:50:26;20.45;;;12.65;;
79670;SDS011;69137;50.878;8.050;2023-04-21T09:52:53;21.58;;;13.07;;
79670;SDS011;69137;50.878;8.050;2023-04-21T09:55:28;19.95;;;13.52;;
79670;SDS011;69137;50.878;8.050;2023-04-21T09:57:56;20.45;;;13.73;;
79670;SDS011;69137;50.878;8.050;2023-04-21T10:00:24;21.05;;;13.38;;
79670;SDS011;69137;50.878;8.050;2023-04-21T10:02:56;19.52;;;12.85;;
79670;SDS011;69137;50.878;8.050;2023-04-21T10:05:22;25.45;;;14.63;;
79670;SDS011;69137;50.878;8.050;2023-04-21T10:07:48;22.67;;;13.52;;
79670;SDS011;69137;50.878;8.050;2023-04-21T10:10:24;23.30;;;13.45;;
79670;SDS011;69137;50.878;8.050;2023-04-21T10:12:51;19.40;;;13.43;;
79670;SDS011;69137;50.878;8.050;2023-04-21T10:15:38;18.85;;;12.27;;
79670;SDS011;69137;50.878;8.050;2023-04-21T10:23:45;19.92;;;12.43;;
79670;SDS011;69137;50.878;8.050;2023-04-21T10:28:56;23.73;;;14.13;;
79670;SDS011;69137;50.878;8.050;2023-04-21T10:39:28;18.77;;;12.48;;
79670;SDS011;69137;50.878;8.050;2023-04-21T10:42:16;21.58;;;12.82;;
79670;SDS011;69137;50.878;8.050;2023-04-21T10:49:55;20.02;;;12.15;;
79670;SDS011;69137;50.878;8.050;2023-04-21T10:52:22;23.83;;;12.93;;
79670;SDS011;69137;50.878;8.050;2023-04-21T10:57:20;21.33;;;12.53;;
79670;SDS011;69137;50.878;8.050;2023-04-21T10:59:46;20.38;;;13.23;;
79670;SDS011;69137;50.878;8.050;2023-04-21T11:02:13;17.58;;;12.02;;
79670;SDS011;69137;50.878;8.050;2023-04-21T11:04:40;20.52;;;11.63;;
79670;SDS011;69137;50.878;8.050;2023-04-21T11:07:23;18.50;;;12.10;;
79670;SDS011;69137;50.878;8.050;2023-04-21T11:10:02;22.67;;;12.25;;
79670;SDS011;69137;50.878;8.050;2023-04-21T11:12:36;20.55;;;11.98;;
79670;SDS011;69137;50.878;8.050;2023-04-21T11:15:04;17.20;;;11.43;;
79670;SDS011;69137;50.878;8.050;2023-04-21T11:17:31;17.00;;;11.98;;
79670;SDS011;69137;50.878;8.050;2023-04-21T11:19:57;33.28;;;12.23;;
79670;SDS011;69137;50.878;8.050;2023-04-21T11:22:22;17.00;;;11.00;;
79670;SDS011;69137;50.878;8.050;2023-04-21T11:24:50;16.40;;;11.43;;
79670;SDS011;69137;50.878;8.050;2023-04-21T11:27:18;17.73;;;10.38;;
79670;SDS011;69137;50.878;8.050;2023-04-21T11:29:45;15.32;;;9.85;;
79670;SDS011;69137;50.878;8.050;2023-04-21T11:32:11;15.15;;;10.20;;
79670;SDS011;69137;50.878;8.050;2023-04-21T11:34:37;14.02;;;10.00;;
79670;SDS011;69137;50.878;8.050;2023-04-21T11:37:05;16.23;;;9.43;;
79670;SDS011;69137;50.878;8.050;2023-04-21T11:39:31;14.02;;;8.90;;
79670;SDS011;69137;50.878;8.050;2023-04-21T11:41:57;16.02;;;10.13;;
79670;SDS011;69137;50.878;8.050;2023-04-21T11:44:32;14.75;;;10.32;;
79670;SDS011;69137;50.878;8.050;2023-04-21T11:47:14;21.88;;;10.75;;
79670;SDS011;69137;50.878;8.050;2023-04-21T11:49:44;14.55;;;9.90;;
79670;SDS011;69137;50.878;8.050;2023-04-21T11:54:53;17.67;;;10.65;;
79670;SDS011;69137;50.878;8.050;2023-04-21T11:57:40;13.32;;;9.60;;
79670;SDS011;69137;50.878;8.050;2023-04-21T12:00:07;15.45;;;9.45;;
79670;SDS011;69137;50.878;8.050;2023-04-21T12:02:38;13.18;;;8.93;;
79670;SDS011;69137;50.878;8.050;2023-04-21T12:05:04;13.65;;;9.43;;
79670;SDS011;69137;50.878;8.050;2023-04-21T12:07:43;13.48;;;9.10;;
79670;SDS011;69137;50.878;8.050;2023-04-21T12:10:15;12.77;;;8.55;;
79670;SDS011;69137;50.878;8.050;2023-04-21T12:12:43;12.65;;;8.63;;
79670;SDS011;69137;50.878;8.050;2023-04-21T12:15:10;11.93;;;8.13;;
79670;SDS011;69137;50.878;8.050;2023-04-21T12:17:43;13.23;;;8.10;;
79670;SDS011;69137;50.878;8.050;2023-04-21T12:20:17;12.63;;;9.25;;
79670;SDS011;69137;50.878;8.050;2023-04-21T12:22:44;13.15;;;8.38;;
79670;SDS011;69137;50.878;8.050;2023-04-21T12:25:10;15.05;;;7.78;;
79670;SDS011;69137;50.878;8.050;2023-04-21T12:27:36;11.65;;;8.05;;
79670;SDS011;69137;50.878;8.050;2023-04-21T12:30:02;12.40;;;7.72;;
79670;SDS011;69137;50.878;8.050;2023-04-21T12:32:28;11.35;;;8.32;;
79670;SDS011;69137;50.878;8.050;2023-04-21T12:34:53;12.35;;;8.70;;
79670;SDS011;69137;50.878;8.050;2023-04-21T12:37:19;11.85;;;7.75;;
79670;SDS011;69137;50.878;8.050;2023-04-21T12:39:44;13.30;;;9.00;;
79670;SDS011;69137;50.878;8.050;2023-04-21T12:42:09;10.90;;;8.38;;
79670;SDS011;69137;50.878;8.050;2023-04-21T12:44:35;11.88;;;8.77;;
79670;SDS011;69137;50.878;8.050;2023-04-21T12:47:01;12.25;;;8.40;;
79670;SDS011;69137;50.878;8.050;2023-04-21T12:49:27;11.27;;;8.13;;
79670;SDS011;69137;50.878;8.050;2023-04-21T12:51:52;13.90;;;8.95;;
79670;SDS011;69137;50.878;8.050;2023-04-21T12:54:18;14.00;;;8.85;;
79670;SDS011;69137;50.878;8.050;2023-04-21T12:56:43;13.15;;;8.20;;
79670;SDS011;69137;50.878;8.050;2023-04-21T12:59:09;10.48;;;7.45;;
79670;SDS011;69137;50.878;8.050;2023-04-21T13:01:35;12.27;;;8.30;;
79670;SDS011;69137;50.878;8.050;2023-04-21T13:04:02;11.95;;;8.50;;
79670;SDS011;69137;50.878;8.050;2023-04-21T13:06:28;12.63;;;8.43;;
79670;SDS011;69137;50.878;8.050;2023-04-21T13:08:55;10.50;;;7.90;;
79670;SDS011;69137;50.878;8.050;2023-04-21T13:11:20;12.27;;;7.60;;
79670;SDS011;69137;50.878;8.050;2023-04-21T13:13:46;12.88;;;7.25;;
79670;SDS011;69137;50.878;8.050;2023-04-21T13:16:11;13.35;;;8.52;;
79670;SDS011;69137;50.878;8.050;2023-04-21T13:18:37;12.50;;;8.50;;
79670;SDS011;69137;50.878;8.050;2023-04-21T13:21:03;12.73;;;9.13;;
79670;SDS011;69137;50.878;8.050;2023-04-21T13:23:28;12.30;;;8.02;;
79670;SDS011;69137;50.878;8.050;2023-04-21T13:25:54;12.10;;;8.20;;
79670;SDS011;69137;50.878;8.050;2023-04-21T13:28:20;12.05;;;8.05;;
79670;SDS011;69137;50.878;8.050;2023-04-21T13:30:46;13.73;;;8.35;;
79670;SDS011;69137;50.878;8.050;2023-04-21T13:33:11;12.88;;;8.25;;
79670;SDS011;69137;50.878;8.050;2023-04-21T13:35:37;15.20;;;8.57;;
79670;SDS011;69137;50.878;8.050;2023-04-21T13:38:03;12.45;;;8.80;;
79670;SDS011;69137;50.878;8.050;2023-04-21T13:40:29;12.20;;;7.97;;
79670;SDS011;69137;50.878;8.050;2023-04-21T13:42:55;11.48;;;7.93;;
79670;SDS011;69137;50.878;8.050;2023-04-21T13:45:22;13.52;;;8.40;;
79670;SDS011;69137;50.878;8.050;2023-04-21T13:47:48;10.98;;;8.07;;
79670;SDS011;69137;50.878;8.050;2023-04-21T13:50:15;11.43;;;7.95;;
79670;SDS011;69137;50.878;8.050;2023-04-21T13:52:41;11.25;;;8.35;;
79670;SDS011;69137;50.878;8.050;2023-04-21T13:55:06;11.15;;;7.50;;
79670;SDS011;69137;50.878;8.050;2023-04-21T13:57:32;13.05;;;8.63;;
79670;SDS011;69137;50.878;8.050;2023-04-21T13:59:57;14.55;;;9.93;;
79670;SDS011;69137;50.878;8.050;2023-04-21T14:02:23;11.57;;;8.65;;
79670;SDS011;69137;50.878;8.050;2023-04-21T14:04:49;12.52;;;8.77;;
79670;SDS011;69137;50.878;8.050;2023-04-21T14:07:15;10.55;;;6.82;;
79670;SDS011;69137;50.878;8.050;2023-04-21T14:09:43;14.30;;;8.27;;
79670;SDS011;69137;50.878;8.050;2023-04-21T14:12:09;10.95;;;7.70;;
79670;SDS011;69137;50.878;8.050;2023-04-21T14:14:35;11.45;;;7.10;;
79670;SDS011;69137;50.878;8.050;2023-04-21T14:17:01;11.77;;;8.13;;
79670;SDS011;69137;50.878;8.050;2023-04-21T14:19:27;13.20;;;8.07;;
79670;SDS011;69137;50.878;8.050;2023-04-21T14:21:53;10.48;;;7.47;;
79670;SDS011;69137;50.878;8.050;2023-04-21T14:24:18;12.40;;;7.80;;
79670;SDS011;69137;50.878;8.050;2023-04-21T14:26:45;10.75;;;7.20;;
79670;SDS011;69137;50.878;8.050;2023-04-21T14:29:11;12.70;;;7.78;;
79670;SDS011;69137;50.878;8.050;2023-04-21T14:31:36;24.23;;;14.70;;
79670;SDS011;69137;50.878;8.050;2023-04-21T14:34:02;11.57;;;8.02;;
79670;SDS011;69137;50.878;8.050;2023-04-21T14:36:27;10.70;;;7.82;;
79670;SDS011;69137;50.878;8.050;2023-04-21T14:38:53;11.25;;;7.63;;
79670;SDS011;69137;50.878;8.050;2023-04-21T14:41:18;14.98;;;10.18;;
79670;SDS011;69137;50.878;8.050;2023-04-21T14:43:44;10.85;;;7.95;;
79670;SDS011;69137;50.878;8.050;2023-04-21T14:46:09;12.43;;;8.25;;
79670;SDS011;69137;50.878;8.050;2023-04-21T14:48:35;12.38;;;8.32;;